Time;durP1;ratioP1;P1;durP2;ratioP2;P2;SDS_P1;SDS_P2;PMS_P1;PMS_P2;Temp;Humidity;BMP_temperature;BMP_pressure;BME280_temperature;BME280_humidity;BME280_pressure;Samples;Min_cycle;Max_cycle;Signal;HPM_P1;HPM_P2
2022/06/08 00:01:56;;;;;;;3.55;1.95;;;18.00;99.90;;;;;;5055904;28;20638;-34
2022/06/08 00:04:25;;;;;;;1.90;1.80;;;18.00;99.90;;;;;;5066793;28;20239;-34
2022/06/08 00:06:53;;;;;;;2.85;1.75;;;17.90;99.90;;;;;;5035166;28;20225;-34
2022/06/08 00:09:21;;;;;;;3.78;2.03;;;17.90;99.90;;;;;;5025407;28;20205;-34
2022/06/08 00:11:50;;;;;;;3.15;2.10;;;17.90;99.90;;;;;;5031983;28;20216;-34
2022/06/08 00:14:18;;;;;;;2.03;1.65;;;17.90;99.90;;;;;;5043995;28;20201;-34
2022/06/08 00:16:45;;;;;;;2.00;1.80;;;17.80;99.90;;;;;;5054060;28;20242;-34
2022/06/08 00:19:12;;;;;;;1.77;1.67;;;17.80;99.90;;;;;;5046152;28;20518;-34
2022/06/08 00:21:40;;;;;;;3.40;2.15;;;17.80;99.90;;;;;;5052016;28;20211;-33
2022/06/08 00:24:12;;;;;;;2.53;2.15;;;17.80;99.90;;;;;;5066359;28;20212;-34
2022/06/08 00:26:43;;;;;;;2.67;2.10;;;17.80;99.90;;;;;;5039094;28;20211;-34
2022/06/08 00:29:10;;;;;;;4.75;2.40;;;17.80;99.90;;;;;;5039200;28;20205;-34
2022/06/08 00:31:38;;;;;;;3.08;2.20;;;17.80;99.90;;;;;;5042863;28;20713;-34
2022/06/08 00:34:05;;;;;;;2.97;2.00;;;17.70;99.90;;;;;;5030398;28;20205;-34
2022/06/08 00:36:34;;;;;;;2.75;1.88;;;17.70;99.90;;;;;;5049385;28;20203;-34
2022/06/08 00:39:05;;;;;;;2.35;2.15;;;17.70;99.90;;;;;;5034531;28;20196;-34
2022/06/08 00:41:41;;;;;;;2.40;2.05;;;17.60;99.90;;;;;;5053988;28;20208;-34
2022/06/08 00:44:34;;;;;;;2.28;1.80;;;17.60;99.90;;;;;;5061179;28;20200;-34
2022/06/08 00:47:03;;;;;;;3.10;1.98;;;17.60;99.90;;;;;;5049041;28;20205;-34
2022/06/08 00:49:50;;;;;;;2.80;1.90;;;17.60;99.90;;;;;;5061746;28;20211;-34
2022/06/08 00:52:18;;;;;;;2.25;2.05;;;17.50;99.90;;;;;;5031807;28;20287;-34
2022/06/08 00:54:54;;;;;;;3.22;2.03;;;17.50;99.90;;;;;;5041752;28;20261;-34
2022/06/08 00:57:36;;;;;;;3.45;2.25;;;17.50;99.90;;;;;;5030316;28;20208;-34
2022/06/08 01:00:15;;;;;;;2.88;2.17;;;17.50;99.90;;;;;;5039766;28;20217;-34
2022/06/08 01:02:42;;;;;;;2.70;2.00;;;17.50;99.90;;;;;;5048043;28;20196;-34
2022/06/08 01:05:28;;;;;;;4.72;2.28;;;17.50;99.90;;;;;;5027152;28;20248;-34
2022/06/08 01:08:01;;;;;;;2.97;2.20;;;17.40;99.90;;;;;;5054112;28;20272;-34
2022/06/08 01:10:50;;;;;;;4.45;2.28;;;17.40;99.90;;;;;;5047263;28;20223;-34
2022/06/08 01:13:20;;;;;;;2.30;2.10;;;17.40;99.90;;;;;;5054952;28;20198;-44
2022/06/08 01:15:48;;;;;;;2.83;2.20;;;17.30;99.90;;;;;;5054956;28;20200;-44
2022/06/08 01:18:16;;;;;;;3.90;2.30;;;17.30;99.90;;;;;;5034853;28;20339;-44
2022/06/08 01:20:53;;;;;;;5.57;2.33;;;17.30;99.90;;;;;;5046572;28;20224;-44
2022/06/08 01:23:22;;;;;;;2.78;2.03;;;17.20;99.90;;;;;;5048361;28;20280;-44
2022/06/08 01:26:01;;;;;;;2.30;1.98;;;17.20;99.90;;;;;;5056806;28;20317;-44
2022/06/08 01:29:12;;;;;;;2.30;2.10;;;17.20;99.90;;;;;;5052878;28;20203;-44
2022/06/08 01:32:03;;;;;;;2.63;2.42;;;17.20;99.90;;;;;;5048673;28;20239;-44
2022/06/08 01:34:43;;;;;;;2.92;2.63;;;17.20;99.90;;;;;;5051533;28;20244;-45
2022/06/08 01:37:27;;;;;;;3.42;2.28;;;17.20;99.90;;;;;;5063821;28;20214;-44
2022/06/08 01:40:31;;;;;;;3.05;2.50;;;17.10;99.90;;;;;;5068757;28;20685;-44
2022/06/08 01:43:17;;;;;;;4.93;2.35;;;17.10;99.90;;;;;;5060957;28;20212;-44
2022/06/08 01:45:48;;;;;;;4.28;2.22;;;17.10;99.90;;;;;;5049536;28;20634;-44
2022/06/08 01:48:30;;;;;;;2.70;1.92;;;17.00;99.90;;;;;;5049710;28;20212;-44
2022/06/08 01:51:12;;;;;;;3.45;2.30;;;17.00;99.90;;;;;;5035238;28;20316;-44
2022/06/08 01:53:47;;;;;;;3.75;2.35;;;17.00;99.90;;;;;;5050732;28;20629;-44
2022/06/08 01:56:23;;;;;;;3.70;2.28;;;17.00;99.90;;;;;;5028102;28;20193;-44
2022/06/08 01:58:50;;;;;;;2.13;1.88;;;16.90;99.90;;;;;;5062537;28;20667;-44
2022/06/08 02:01:22;;;;;;;3.55;2.20;;;16.90;99.90;;;;;;5062451;28;20287;-44
2022/06/08 02:04:07;;;;;;;3.08;2.30;;;16.90;99.90;;;;;;5044146;28;20214;-44
2022/06/08 02:06:47;;;;;;;7.18;2.13;;;16.90;99.90;;;;;;5056214;28;20235;-34
2022/06/08 02:09:22;;;;;;;2.50;2.10;;;16.90;99.90;;;;;;5039819;28;20684;-34
2022/06/08 02:12:03;;;;;;;3.55;2.45;;;16.90;99.90;;;;;;5038267;28;20633;-34
2022/06/08 02:14:53;;;;;;;2.63;1.98;;;16.90;99.90;;;;;;5062959;28;20203;-34
2022/06/08 02:17:39;;;;;;;2.50;1.90;;;16.90;99.90;;;;;;5036246;28;20295;-34
2022/06/08 02:20:12;;;;;;;3.95;2.08;;;16.90;99.90;;;;;;5039759;28;20285;-34
2022/06/08 02:22:49;;;;;;;2.28;2.05;;;16.90;99.90;;;;;;5036997;28;20196;-34
2022/06/08 02:25:39;;;;;;;2.90;2.40;;;16.90;99.90;;;;;;5046133;28;20196;-34
2022/06/08 02:28:13;;;;;;;3.08;2.20;;;16.90;99.90;;;;;;5047390;28;20222;-34
2022/06/08 02:31:00;;;;;;;3.17;2.30;;;16.90;99.90;;;;;;5036598;28;20227;-34
2022/06/08 02:37:09;;;;;;;2.88;2.15;;;16.90;99.90;;;;;;5052551;28;20240;-34
2022/06/08 02:39:59;;;;;;;2.55;2.00;;;16.80;99.90;;;;;;5023302;28;20730;-34
2022/06/08 02:42:32;;;;;;;3.65;2.40;;;16.80;99.90;;;;;;5024066;28;20215;-34
2022/06/08 02:45:16;;;;;;;3.00;2.42;;;16.80;99.90;;;;;;5029103;28;20215;-34
2022/06/08 02:47:47;;;;;;;2.35;2.10;;;16.80;99.90;;;;;;5063282;28;20296;-34
2022/06/08 02:50:18;;;;;;;3.55;2.35;;;16.80;99.90;;;;;;5064839;28;20511;-34
2022/06/08 02:52:48;;;;;;;2.72;2.30;;;16.80;99.90;;;;;;5030769;28;20296;-34
2022/06/08 02:55:21;;;;;;;5.57;2.40;;;16.80;99.90;;;;;;5058479;28;20624;-34
2022/06/08 02:58:08;;;;;;;2.25;2.05;;;16.80;99.90;;;;;;5031076;28;20618;-34
2022/06/08 03:00:45;;;;;;;3.87;2.33;;;16.80;99.90;;;;;;5035997;28;20219;-34
2022/06/08 03:03:20;;;;;;;3.28;2.10;;;16.80;99.90;;;;;;5040636;28;20792;-34
2022/06/08 03:06:04;;;;;;;2.47;2.23;;;16.80;99.90;;;;;;5051328;28;20235;-34
2022/06/08 03:08:52;;;;;;;3.03;2.25;;;16.80;99.90;;;;;;5040937;28;20728;-34
2022/06/08 03:11:21;;;;;;;2.60;2.33;;;16.80;99.90;;;;;;5033078;28;20325;-34
2022/06/08 03:13:58;;;;;;;4.28;2.30;;;16.80;99.90;;;;;;5043635;28;20250;-33
2022/06/08 03:16:33;;;;;;;4.25;2.25;;;16.80;99.90;;;;;;5059081;28;20234;-34
2022/06/08 03:19:00;;;;;;;3.65;2.33;;;16.80;99.90;;;;;;5055670;28;20268;-34
2022/06/08 03:21:28;;;;;;;2.77;2.10;;;16.80;99.90;;;;;;5052602;28;20228;-34
2022/06/08 03:23:56;;;;;;;2.83;2.05;;;16.80;99.90;;;;;;5045291;28;20200;-34
2022/06/08 03:26:25;;;;;;;3.33;1.90;;;16.90;99.90;;;;;;5056787;28;20247;-34
2022/06/08 03:28:52;;;;;;;3.00;1.60;;;16.90;99.90;;;;;;5053488;28;20210;-34
2022/06/08 03:31:19;;;;;;;2.70;1.67;;;16.90;99.90;;;;;;5062714;28;20306;-34
2022/06/08 03:33:49;;;;;;;2.85;2.03;;;16.90;99.90;;;;;;5051060;28;20199;-34
2022/06/08 03:36:18;;;;;;;10.57;4.97;;;16.90;99.90;;;;;;5059641;28;20274;-34
2022/06/08 03:38:46;;;;;;;6.70;3.58;;;16.90;99.90;;;;;;5054392;28;20228;-33
2022/06/08 03:41:13;;;;;;;5.70;2.92;;;17.00;99.90;;;;;;5055220;28;20257;-34
2022/06/08 03:43:40;;;;;;;5.68;2.50;;;17.00;99.90;;;;;;5061752;28;20613;-34
2022/06/08 03:46:11;;;;;;;2.70;1.70;;;17.00;99.90;;;;;;5027128;28;20216;-34
2022/06/08 03:48:40;;;;;;;1.92;1.73;;;17.00;99.90;;;;;;5030075;28;20204;-34
2022/06/08 03:51:08;;;;;;;2.70;1.92;;;17.10;99.90;;;;;;5043265;28;20318;-44
2022/06/08 03:53:47;;;;;;;5.75;2.35;;;17.10;99.90;;;;;;5038927;28;20611;-44
2022/06/08 03:56:19;;;;;;;3.15;1.88;;;17.10;99.90;;;;;;5039997;28;20230;-44
2022/06/08 03:58:47;;;;;;;3.57;1.80;;;17.10;99.90;;;;;;5050910;28;20233;-44
2022/06/08 04:01:15;;;;;;;3.25;1.83;;;17.20;99.90;;;;;;5049812;28;20605;-44
2022/06/08 04:03:43;;;;;;;1.85;1.70;;;17.20;99.90;;;;;;5035265;28;20204;-45
2022/06/08 04:06:10;;;;;;;2.10;1.70;;;17.20;99.90;;;;;;5049747;28;20235;-44
2022/06/08 04:08:38;;;;;;;2.08;1.42;;;17.20;99.90;;;;;;5048339;28;20235;-44
2022/06/08 04:11:10;;;;;;;2.03;1.70;;;17.30;99.90;;;;;;5050901;28;20326;-44
2022/06/08 04:13:38;;;;;;;3.67;1.92;;;17.30;99.90;;;;;;5060382;28;20322;-43
2022/06/08 04:16:08;;;;;;;2.22;1.30;;;17.30;99.90;;;;;;5036068;28;20320;-43
2022/06/08 04:18:38;;;;;;;1.40;1.30;;;17.40;99.90;;;;;;5063623;28;20200;-43
2022/06/08 04:21:10;;;;;;;2.83;1.50;;;17.40;99.90;;;;;;5031075;28;20248;-43
2022/06/08 04:23:42;;;;;;;2.30;1.40;;;17.50;99.90;;;;;;5053593;28;20209;-43
2022/06/08 04:26:11;;;;;;;3.80;1.65;;;17.50;99.90;;;;;;5051971;28;20221;-43
2022/06/08 04:28:38;;;;;;;2.10;1.40;;;17.50;99.90;;;;;;5058797;28;20232;-43
2022/06/08 04:31:06;;;;;;;2.03;1.35;;;17.50;99.90;;;;;;5047490;28;20678;-43
2022/06/08 04:33:36;;;;;;;2.90;1.40;;;17.60;99.90;;;;;;5034810;28;20201;-43
2022/06/08 04:36:11;;;;;;;1.80;1.20;;;17.60;99.90;;;;;;5053296;28;20196;-43
2022/06/08 04:38:39;;;;;;;3.27;1.60;;;17.70;99.90;;;;;;5051924;28;20215;-43
2022/06/08 04:41:07;;;;;;;2.55;2.00;;;17.70;99.90;;;;;;5043360;28;20615;-43
2022/06/08 04:43:34;;;;;;;3.00;1.30;;;17.70;99.90;;;;;;5053528;28;20290;-43
2022/06/08 04:46:02;;;;;;;1.98;1.25;;;17.80;99.90;;;;;;5040625;28;20265;-43
2022/06/08 04:48:30;;;;;;;3.97;1.38;;;17.90;99.90;;;;;;5065406;28;20212;-43
2022/06/08 04:50:57;;;;;;;1.75;1.48;;;17.90;99.90;;;;;;5041131;28;20248;-43
2022/06/08 04:53:25;;;;;;;2.30;1.45;;;17.90;99.90;;;;;;5066410;28;20204;-43
2022/06/08 04:55:52;;;;;;;2.58;1.45;;;18.00;99.90;;;;;;5055848;28;20235;-43
2022/06/08 04:58:20;;;;;;;1.20;1.10;;;18.00;99.90;;;;;;5042465;28;20790;-43
2022/06/08 05:00:48;;;;;;;4.38;1.60;;;18.10;99.90;;;;;;5040854;28;20199;-46
2022/06/08 05:03:17;;;;;;;2.38;1.33;;;18.10;99.90;;;;;;5043966;28;20274;-43
2022/06/08 05:05:45;;;;;;;3.55;1.70;;;18.10;99.90;;;;;;5041700;28;20236;-43
2022/06/08 05:08:20;;;;;;;4.57;1.90;;;18.20;99.90;;;;;;5031130;28;20590;-44
2022/06/08 05:10:50;;;;;;;3.85;2.15;;;18.20;99.90;;;;;;5041583;28;20644;-43
2022/06/08 05:13:18;;;;;;;4.47;2.25;;;18.20;99.90;;;;;;5045830;28;20208;-43
2022/06/08 05:15:46;;;;;;;4.50;2.15;;;18.20;99.90;;;;;;5044250;28;20521;-43
2022/06/08 05:18:16;;;;;;;7.32;3.25;;;18.30;99.90;;;;;;5046066;28;20196;-43
2022/06/08 05:20:44;;;;;;;8.35;3.28;;;18.30;99.90;;;;;;5041958;28;20227;-43
2022/06/08 05:23:30;;;;;;;5.80;3.08;;;18.30;99.90;;;;;;5061082;28;20308;-43
2022/06/08 05:25:58;;;;;;;3.92;2.58;;;18.40;99.90;;;;;;5055121;28;20215;-43
2022/06/08 05:28:25;;;;;;;5.97;3.00;;;18.40;99.90;;;;;;5048620;28;20602;-43
2022/06/08 05:30:56;;;;;;;5.50;3.25;;;18.40;99.90;;;;;;5052713;28;20219;-43
2022/06/08 05:33:28;;;;;;;6.05;3.05;;;18.50;99.90;;;;;;5059678;28;20207;-43
2022/06/08 05:35:58;;;;;;;6.85;2.67;;;18.50;99.90;;;;;;5049596;28;20199;-43
2022/06/08 05:38:26;;;;;;;7.25;3.20;;;18.60;99.90;;;;;;5065794;28;20200;-43
2022/06/08 05:40:54;;;;;;;8.27;3.65;;;18.60;99.90;;;;;;5053445;28;20769;-33
2022/06/08 05:43:22;;;;;;;8.07;3.75;;;18.70;99.90;;;;;;5043433;28;20206;-33
2022/06/08 05:45:51;;;;;;;7.47;3.45;;;18.70;99.90;;;;;;5053343;28;20588;-33
2022/06/08 05:48:21;;;;;;;13.73;4.32;;;18.80;99.90;;;;;;5054330;28;20201;-33
2022/06/08 05:50:49;;;;;;;10.75;3.67;;;18.80;99.90;;;;;;5042948;28;20253;-33
2022/06/08 05:53:16;;;;;;;6.95;3.15;;;18.80;99.90;;;;;;5068982;28;20231;-33
2022/06/08 05:55:46;;;;;;;4.68;2.70;;;18.90;99.90;;;;;;5064671;28;20235;-33
2022/06/08 05:58:13;;;;;;;11.00;6.68;;;18.90;99.90;;;;;;5061145;28;20213;-33
2022/06/08 06:00:42;;;;;;;11.55;3.60;;;19.00;99.90;;;;;;5064986;28;20208;-33
2022/06/08 06:03:10;;;;;;;5.00;2.72;;;19.10;99.90;;;;;;5046819;28;20205;-33
2022/06/08 06:05:41;;;;;;;6.72;2.38;;;19.10;99.90;;;;;;5058857;28;20240;-33
2022/06/08 06:08:12;;;;;;;5.38;1.80;;;19.10;99.90;;;;;;5050182;28;20207;-33
2022/06/08 06:10:43;;;;;;;8.48;3.70;;;19.10;99.90;;;;;;5040357;28;20663;-33
2022/06/08 06:13:10;;;;;;;6.25;2.70;;;19.20;99.90;;;;;;5036924;28;20224;-33
2022/06/08 06:15:40;;;;;;;5.78;2.30;;;19.20;99.90;;;;;;5044203;28;20345;-33
2022/06/08 06:18:17;;;;;;;5.82;3.13;;;19.30;99.90;;;;;;5046367;28;20200;-33
2022/06/08 06:20:49;;;;;;;7.18;3.42;;;19.30;99.90;;;;;;5043345;28;20302;-33
2022/06/08 06:23:17;;;;;;;12.63;3.00;;;19.30;99.90;;;;;;5043488;28;20230;-33
2022/06/08 06:25:44;;;;;;;6.38;2.67;;;19.30;99.90;;;;;;5045851;28;20848;-33
2022/06/08 06:28:14;;;;;;;5.30;2.72;;;19.40;99.90;;;;;;5051107;28;20231;-33
2022/06/08 06:30:41;;;;;;;8.23;2.60;;;19.40;99.90;;;;;;5053221;28;20620;-34
2022/06/08 06:33:11;;;;;;;9.80;2.80;;;19.40;99.90;;;;;;5042507;28;20216;-34
2022/06/08 06:35:41;;;;;;;5.93;2.85;;;19.50;99.90;;;;;;5043322;28;20204;-34
2022/06/08 06:38:09;;;;;;;5.03;2.17;;;19.50;99.90;;;;;;5055548;28;20196;-33
2022/06/08 06:40:37;;;;;;;7.20;2.40;;;19.60;99.90;;;;;;5031284;28;20683;-33
2022/06/08 06:43:05;;;;;;;4.75;2.25;;;19.60;99.90;;;;;;5047524;28;20280;-33
2022/06/08 06:45:32;;;;;;;11.80;2.88;;;19.70;99.90;;;;;;5049522;28;20710;-33
2022/06/08 06:47:59;;;;;;;7.97;2.60;;;19.70;99.90;;;;;;5059158;28;20273;-33
2022/06/08 06:50:31;;;;;;;7.72;2.47;;;19.80;99.90;;;;;;5049059;28;20660;-33
2022/06/08 06:53:01;;;;;;;7.20;2.40;;;19.80;99.90;;;;;;5037513;28;20792;-33
2022/06/08 06:55:33;;;;;;;7.38;2.35;;;19.80;99.90;;;;;;5044984;28;20299;-33
2022/06/08 06:58:03;;;;;;;5.93;2.28;;;19.80;99.90;;;;;;5049784;28;20644;-33
2022/06/08 07:00:31;;;;;;;3.58;1.80;;;19.80;99.90;;;;;;5047425;28;20205;-42
2022/06/08 07:03:00;;;;;;;6.75;2.20;;;19.80;99.90;;;;;;5054731;28;20203;-42
2022/06/08 07:05:34;;;;;;;7.70;2.20;;;19.80;99.90;;;;;;5058775;28;20246;-42
2022/06/08 07:08:02;;;;;;;4.88;2.00;;;19.90;99.90;;;;;;5041247;28;20219;-43
2022/06/08 07:10:34;;;;;;;4.72;2.08;;;19.80;99.90;;;;;;5036895;28;20232;-42
2022/06/08 07:13:01;;;;;;;4.32;2.00;;;19.90;99.90;;;;;;5057092;28;21114;-43
2022/06/08 07:15:29;;;;;;;5.35;1.83;;;19.90;99.90;;;;;;5062635;28;20276;-42
2022/06/08 07:17:59;;;;;;;7.05;2.10;;;19.90;99.90;;;;;;5039403;28;20215;-43
2022/06/08 07:20:26;;;;;;;4.65;2.10;;;19.90;99.90;;;;;;5052001;28;20293;-43
2022/06/08 07:22:54;;;;;;;4.68;2.30;;;20.00;99.90;;;;;;5065017;28;20627;-42
2022/06/08 07:25:21;;;;;;;12.18;2.25;;;20.00;99.90;;;;;;5062453;28;20257;-42
2022/06/08 07:27:53;;;;;;;5.80;2.10;;;20.00;99.90;;;;;;5048222;28;20772;-43
2022/06/08 07:30:22;;;;;;;5.18;2.10;;;20.00;99.90;;;;;;5060410;28;20294;-43
2022/06/08 07:32:50;;;;;;;4.85;2.00;;;20.00;99.90;;;;;;5054476;28;20242;-43
2022/06/08 07:35:17;;;;;;;4.80;1.92;;;20.00;99.90;;;;;;5045474;28;20220;-43
2022/06/08 07:37:47;;;;;;;5.10;1.92;;;20.00;99.90;;;;;;5045332;28;20200;-42
2022/06/08 07:40:16;;;;;;;5.25;1.90;;;20.00;99.90;;;;;;5032896;28;20212;-43
2022/06/08 07:42:44;;;;;;;4.32;2.20;;;20.00;99.90;;;;;;5031331;28;20212;-43
2022/06/08 07:45:12;;;;;;;4.65;1.92;;;20.00;99.90;;;;;;5027189;28;20235;-43
2022/06/08 07:50:28;;;;;;;8.13;2.70;;;20.00;99.90;;;;;;5049821;28;20227;-44
2022/06/08 07:52:57;;;;;;;7.63;2.47;;;20.00;99.90;;;;;;5046133;28;20220;-43
2022/06/08 07:55:25;;;;;;;5.40;1.95;;;20.00;99.90;;;;;;5043494;28;20212;-43
2022/06/08 07:57:53;;;;;;;10.07;1.73;;;20.00;99.90;;;;;;5031265;28;20618;-43
2022/06/08 08:00:28;;;;;;;6.15;1.80;;;20.00;99.90;;;;;;5066886;28;20204;-43
2022/06/08 08:02:56;;;;;;;7.70;1.90;;;20.10;99.90;;;;;;5044672;28;20206;-43
2022/06/08 08:05:26;;;;;;;7.07;2.10;;;20.10;99.90;;;;;;5047758;28;20693;-42
2022/06/08 08:07:59;;;;;;;5.20;1.85;;;20.10;99.90;;;;;;5045835;28;20212;-43
2022/06/08 08:10:28;;;;;;;6.78;2.13;;;20.10;99.90;;;;;;5036762;28;20312;-42
2022/06/08 08:12:56;;;;;;;4.68;1.58;;;20.10;99.90;;;;;;5062079;28;20744;-42
2022/06/08 08:15:26;;;;;;;7.65;1.63;;;20.10;99.90;;;;;;5051662;28;20211;-43
2022/06/08 08:17:57;;;;;;;6.40;2.15;;;20.10;99.90;;;;;;5051965;28;20215;-43
2022/06/08 08:20:26;;;;;;;7.75;2.10;;;20.10;99.90;;;;;;5032373;28;20299;-43
2022/06/08 08:22:58;;;;;;;3.45;1.45;;;20.10;99.90;;;;;;5036027;28;20223;-42
2022/06/08 08:25:26;;;;;;;4.00;1.85;;;20.10;99.90;;;;;;5035993;28;20240;-42
2022/06/08 08:27:55;;;;;;;6.72;2.00;;;20.10;99.90;;;;;;5030242;28;20767;-42
2022/06/08 08:30:25;;;;;;;4.18;1.80;;;20.10;99.90;;;;;;5044517;28;20227;-42
2022/06/08 08:32:53;;;;;;;8.00;1.90;;;20.10;99.90;;;;;;5034870;28;20240;-42
2022/06/08 08:35:21;;;;;;;6.22;1.88;;;20.10;99.90;;;;;;5050020;28;20236;-42
2022/06/08 08:37:49;;;;;;;7.38;2.40;;;20.00;99.90;;;;;;5049487;28;20200;-42
2022/06/08 08:40:35;;;;;;;6.15;2.20;;;20.10;99.90;;;;;;5051529;28;20198;-42
2022/06/08 08:43:02;;;;;;;7.32;2.28;;;20.10;99.90;;;;;;5065157;28;20223;-42
2022/06/08 08:45:35;;;;;;;6.40;1.80;;;20.10;99.90;;;;;;5046069;28;20658;-43
2022/06/08 08:48:09;;;;;;;7.45;2.42;;;20.10;99.90;;;;;;5064773;28;20235;-42
2022/06/08 08:51:03;;;;;;;5.78;2.10;;;20.10;99.90;;;;;;5054020;28;20224;-43
2022/06/08 08:53:47;;;;;;;4.68;1.83;;;20.10;99.90;;;;;;5046538;28;20629;-43
2022/06/08 08:56:21;;;;;;;7.70;2.15;;;20.00;99.90;;;;;;5044862;28;20379;-43
2022/06/08 08:58:55;;;;;;;7.65;2.00;;;20.00;99.90;;;;;;5049876;28;20214;-43
2022/06/08 09:01:35;;;;;;;5.88;1.75;;;20.00;99.90;;;;;;5042834;28;20200;-43
2022/06/08 09:04:28;;;;;;;6.32;1.95;;;19.90;99.90;;;;;;5053809;28;20667;-42
2022/06/08 09:07:00;;;;;;;4.88;2.13;;;19.90;99.90;;;;;;5025889;28;20216;-43
2022/06/08 09:09:32;;;;;;;6.18;1.92;;;19.90;99.90;;;;;;5048981;28;20208;-43
2022/06/08 09:12:02;;;;;;;8.65;2.55;;;19.90;99.90;;;;;;5049443;28;20208;-43
2022/06/08 09:15:03;;;;;;;7.53;3.00;;;19.80;99.90;;;;;;5049196;28;20560;-43
2022/06/08 09:17:36;;;;;;;6.68;2.08;;;19.80;99.90;;;;;;5048985;28;20242;-43
2022/06/08 09:20:27;;;;;;;7.40;2.50;;;19.80;99.90;;;;;;5052148;28;20196;-43
2022/06/08 09:22:57;;;;;;;6.45;2.63;;;19.80;99.90;;;;;;5048312;28;20204;-43
2022/06/08 09:25:32;;;;;;;6.63;2.10;;;19.70;99.90;;;;;;5053857;28;20221;-42
2022/06/08 09:28:00;;;;;;;4.78;2.20;;;19.70;99.90;;;;;;5032330;28;20298;-42
2022/06/08 09:30:47;;;;;;;6.45;2.38;;;19.70;99.90;;;;;;5039032;28;20238;-42
2022/06/08 09:33:23;;;;;;;4.75;1.88;;;19.70;99.90;;;;;;5061893;28;20322;-42
2022/06/08 09:36:03;;;;;;;5.00;1.83;;;19.70;99.90;;;;;;5063317;28;20302;-42
2022/06/08 09:38:37;;;;;;;6.32;1.58;;;19.70;99.90;;;;;;5054304;28;20674;-42
2022/06/08 09:41:32;;;;;;;6.55;1.75;;;19.60;99.90;;;;;;5057244;28;20256;-42
2022/06/08 09:44:21;;;;;;;6.43;1.95;;;19.60;99.90;;;;;;5040765;28;20322;-42
2022/06/08 09:53:11;;;;;;;5.13;1.88;;;19.40;99.90;;;;;;5030969;28;20224;-41
2022/06/08 09:55:43;;;;;;;4.63;2.00;;;19.40;99.90;;;;;;5062563;28;20243;-41
2022/06/08 09:58:48;;;;;;;5.03;1.92;;;19.30;99.90;;;;;;5062346;28;20600;-41
2022/06/08 10:01:43;;;;;;;6.22;2.03;;;19.40;99.90;;;;;;5037140;28;20316;-40
2022/06/08 10:04:20;;;;;;;5.47;2.22;;;19.30;99.90;;;;;;5051484;28;20204;-40
2022/06/08 10:07:19;;;;;;;4.93;2.20;;;19.30;99.90;;;;;;5044813;28;20290;-40
2022/06/08 10:09:58;;;;;;;3.05;1.60;;;19.30;99.90;;;;;;5048239;28;20261;-39
2022/06/08 10:12:34;;;;;;;4.07;2.00;;;19.30;99.90;;;;;;5066318;28;20221;-40
2022/06/08 10:15:23;;;;;;;4.68;1.88;;;19.30;99.90;;;;;;5056611;28;20283;-40
2022/06/08 10:18:10;;;;;;;3.05;1.65;;;19.30;99.90;;;;;;5051141;28;20243;-39
2022/06/08 10:20:50;;;;;;;3.42;2.08;;;19.30;99.90;;;;;;5036168;28;20295;-40
2022/06/08 10:23:55;;;;;;;5.32;1.90;;;19.30;99.90;;;;;;5055563;28;20212;-39
2022/06/08 10:26:27;;;;;;;3.80;1.80;;;19.20;99.90;;;;;;5009637;28;20865;-39
2022/06/08 10:29:15;;;;;;;5.05;2.33;;;19.20;99.90;;;;;;5047168;28;20208;-40
2022/06/08 10:31:51;;;;;;;5.45;2.35;;;19.20;99.90;;;;;;5056816;28;20311;-40
2022/06/08 10:34:31;;;;;;;4.65;2.45;;;19.20;99.90;;;;;;5052149;28;20217;-40
2022/06/08 10:37:15;;;;;;;4.30;2.10;;;19.20;99.90;;;;;;5029541;28;20246;-41
2022/06/08 10:39:44;;;;;;;3.78;1.95;;;19.20;99.90;;;;;;5065260;28;20278;-40
2022/06/08 10:45:02;;;;;;;4.97;2.20;;;19.20;99.90;;;;;;5038781;28;20218;-40
2022/06/08 10:47:37;;;;;;;3.90;2.17;;;19.20;99.90;;;;;;5043105;28;20248;-40
2022/06/08 10:50:04;;;;;;;4.30;2.00;;;19.20;99.90;;;;;;5037970;28;20704;-40
2022/06/08 10:52:46;;;;;;;3.10;1.90;;;19.20;99.90;;;;;;5036169;28;20232;-40
2022/06/08 10:55:13;;;;;;;3.78;1.90;;;19.20;99.90;;;;;;5046503;28;20288;-40
2022/06/08 10:57:50;;;;;;;4.18;2.25;;;19.20;99.90;;;;;;5058299;28;20292;-40
2022/06/08 11:00:20;;;;;;;5.78;2.20;;;19.20;99.90;;;;;;5043488;28;20269;-40
2022/06/08 11:03:02;;;;;;;4.18;1.83;;;19.20;99.90;;;;;;5055404;28;20601;-40
2022/06/08 11:05:45;;;;;;;5.03;1.90;;;19.20;99.90;;;;;;5051964;28;20559;-40
2022/06/08 11:08:13;;;;;;;3.38;1.88;;;19.20;99.90;;;;;;5047136;28;20204;-40
2022/06/08 11:10:50;;;;;;;3.40;1.70;;;19.30;99.90;;;;;;5039314;28;20206;-40
2022/06/08 11:13:32;;;;;;;2.97;1.38;;;19.30;99.90;;;;;;5040296;28;22193;-40
2022/06/08 11:16:22;;;;;;;2.28;1.35;;;19.30;99.90;;;;;;5034790;28;20208;-40
2022/06/08 11:19:22;;;;;;;2.72;1.30;;;19.30;99.90;;;;;;5033239;28;20203;-40
2022/06/08 11:21:58;;;;;;;3.08;1.42;;;19.30;99.90;;;;;;5029724;28;20275;-40
2022/06/08 11:24:51;;;;;;;2.35;1.20;;;19.30;99.90;;;;;;5042572;28;20303;-40
2022/06/08 11:27:32;;;;;;;3.55;1.63;;;19.30;99.90;;;;;;5044717;28;20205;-40
2022/06/08 11:30:22;;;;;;;1.58;1.00;;;19.20;99.90;;;;;;5043476;28;20247;-40
2022/06/08 11:32:52;;;;;;;4.18;1.30;;;19.20;99.90;;;;;;5045031;28;20242;-40
2022/06/08 11:35:38;;;;;;;2.85;1.27;;;19.20;99.90;;;;;;5049641;28;20290;-40
2022/06/08 11:38:25;;;;;;;3.85;1.40;;;19.20;99.90;;;;;;5060254;28;20223;-41
2022/06/08 11:41:20;;;;;;;3.13;1.15;;;19.20;99.90;;;;;;5052052;28;20668;-40
2022/06/08 11:43:54;;;;;;;2.20;1.20;;;19.20;99.90;;;;;;5046656;28;20277;-40
2022/06/08 11:46:34;;;;;;;4.78;1.50;;;19.10;99.90;;;;;;5046366;28;20215;-41
2022/06/08 11:49:03;;;;;;;3.10;1.20;;;19.10;99.90;;;;;;5043287;28;20294;-41
2022/06/08 11:51:45;;;;;;;2.05;1.10;;;19.10;99.90;;;;;;5056437;28;20331;-41
2022/06/08 11:54:27;;;;;;;1.88;1.08;;;19.20;99.90;;;;;;5048421;28;20303;-41
2022/06/08 11:57:22;;;;;;;2.20;1.27;;;19.20;99.90;;;;;;5057446;28;20689;-41
2022/06/08 11:59:54;;;;;;;2.42;1.10;;;19.20;99.90;;;;;;5039543;28;20208;-41
2022/06/08 12:02:26;;;;;;;2.63;1.25;;;19.20;99.90;;;;;;5043384;28;20259;-41
2022/06/08 12:04:57;;;;;;;2.70;1.30;;;19.20;99.90;;;;;;5049704;28;20243;-41
2022/06/08 12:07:52;;;;;;;2.08;1.08;;;19.10;99.90;;;;;;5041051;28;20223;-41
2022/06/08 12:10:26;;;;;;;2.20;1.17;;;19.10;99.90;;;;;;5040880;28;20283;-41
2022/06/08 12:12:58;;;;;;;2.03;1.00;;;19.10;99.90;;;;;;5058854;28;20300;-41
2022/06/08 12:15:27;;;;;;;3.30;1.10;;;19.10;99.90;;;;;;5070280;28;20216;-41
2022/06/08 12:17:55;;;;;;;2.80;0.93;;;19.20;99.90;;;;;;5050265;28;20269;-40
2022/06/08 12:20:38;;;;;;;1.63;1.05;;;19.10;99.90;;;;;;5049593;28;20751;-40
2022/06/08 12:23:08;;;;;;;2.95;0.90;;;19.20;99.90;;;;;;5052996;28;20246;-40
2022/06/08 12:25:36;;;;;;;2.28;0.80;;;19.30;99.90;;;;;;5061228;28;20212;-40
2022/06/08 12:28:03;;;;;;;1.10;0.70;;;19.30;99.90;;;;;;5049579;28;20195;-41
2022/06/08 12:30:54;;;;;;;2.22;0.90;;;19.30;99.90;;;;;;5062645;28;20200;-41
2022/06/08 12:33:29;;;;;;;3.20;0.95;;;19.30;99.90;;;;;;5043892;28;20224;-41
2022/06/08 12:36:18;;;;;;;0.60;0.60;;;19.40;99.90;;;;;;5036801;28;20669;-41
2022/06/08 12:39:09;;;;;;;0.82;0.70;;;19.40;99.90;;;;;;5050309;28;20498;-41
2022/06/08 12:41:52;;;;;;;1.05;0.60;;;19.50;99.90;;;;;;5038989;28;20201;-41
2022/06/08 12:44:31;;;;;;;1.77;0.63;;;19.50;99.90;;;;;;5043083;28;20201;-41
2022/06/08 12:47:11;;;;;;;1.13;0.70;;;19.50;99.90;;;;;;5051927;28;20199;-40
2022/06/08 12:49:44;;;;;;;1.23;0.70;;;19.50;99.90;;;;;;5054784;28;20704;-40
2022/06/08 12:52:22;;;;;;;0.90;0.70;;;19.60;99.90;;;;;;5044106;28;20207;-40
2022/06/08 12:54:50;;;;;;;1.17;0.70;;;19.60;99.90;;;;;;5040524;28;20232;-40
2022/06/08 12:57:21;;;;;;;1.23;0.60;;;19.60;99.90;;;;;;5049066;28;20201;-40
2022/06/08 12:59:53;;;;;;;2.58;0.93;;;19.60;99.90;;;;;;5051982;28;20304;-40
2022/06/08 13:02:30;;;;;;;1.10;0.90;;;19.70;99.90;;;;;;5060107;28;20249;-40
2022/06/08 13:05:03;;;;;;;1.38;0.90;;;19.70;99.90;;;;;;5036562;28;20248;-40
2022/06/08 13:07:34;;;;;;;1.83;0.98;;;19.70;99.90;;;;;;5053477;28;20574;-40
2022/06/08 13:10:03;;;;;;;3.85;1.00;;;19.70;99.90;;;;;;5055545;28;20912;-41
2022/06/08 13:12:34;;;;;;;2.85;1.17;;;19.70;99.90;;;;;;5057573;28;20230;-41
2022/06/08 13:15:03;;;;;;;1.90;1.00;;;19.70;99.90;;;;;;5067330;28;20231;-40
2022/06/08 13:17:30;;;;;;;1.73;1.00;;;19.70;99.90;;;;;;5064550;28;20223;-40
2022/06/08 13:20:00;;;;;;;2.85;1.00;;;19.70;99.90;;;;;;5037241;28;20201;-40
2022/06/08 13:22:29;;;;;;;3.42;1.30;;;19.80;99.90;;;;;;5052823;28;20208;-40
2022/06/08 13:24:59;;;;;;;4.70;1.63;;;19.80;99.90;;;;;;5045487;28;20208;-40
2022/06/08 13:27:29;;;;;;;2.92;1.20;;;19.80;99.90;;;;;;5058310;28;20231;-40
2022/06/08 13:29:56;;;;;;;4.35;1.90;;;19.80;99.90;;;;;;5049611;28;20245;-40
2022/06/08 13:32:24;;;;;;;6.40;1.55;;;19.90;99.90;;;;;;5048761;28;20224;-40
2022/06/08 13:34:51;;;;;;;5.22;1.75;;;19.90;99.90;;;;;;5036718;28;20252;-40
2022/06/08 13:37:31;;;;;;;6.32;2.13;;;19.90;99.90;;;;;;5055328;28;20200;-40